Welcome to the New NWS' Forecast!
Most changes are behind the scenes, but click here for differences you might notice.
Latest weather observations around

BENTON (BETC1)

Using English Units (Switch to International System of Units)
Date/ Time (PDT) Wind (mph) Vis. (mi) Weather Sky Cond. Temp (°F) Rel. Humidity Wind Chill (°F) Heat Index (°F) Pressure Precip. (in)
Air Dwpt 6 hour Altimeter (inHg) Sea level (inHg) 1 hr 3 hr 6 hr
Max Min
Sep 24 10:00 N 11   Clear   54 20     26%              
Sep 24 09:00 N 10   Clear   51 20     29%              
Sep 24 08:00 NNE 9   Clear   40 21     46% 34            
Sep 24 07:00 NNE 9   Clear   37 19     47% 30            
Sep 24 06:00 N 5   Clear   34 19     54% 29            
Sep 24 05:00 NE 6   Clear   33 18     54% 27            
Sep 24 04:00 N 6   Clear   36 19     50% 31            
Sep 24 03:00 N 9   Clear   36 21     53% 29            
Sep 24 02:00 NNE 8   Clear   36 20     51% 30            
Sep 24 01:00 N 9   Clear   38 20     47% 32            
Sep 24 00:00 N 5   Clear   37 19     48% 33            
Sep 23 23:00 NNW 5   Clear   41 20     42% 38            
Sep 23 22:00 N 6   Clear   42 21     42% 38            
Sep 23 21:00 N 9   Clear   44 21     39% 39            
Sep 23 20:00 N 10   Clear   47 20     34% 42            
Sep 23 19:00 NNE 15   Clear   50 19     29% 45            
Sep 23 18:00 NNE 16   Clear   55 19     24%              
Sep 23 17:00 NE 16   Clear   57 17     21%              
Sep 23 16:00 NE 15   Clear   58 16     19%              
Sep 23 15:00 ENE 14   Clear   58 16     19%              
Sep 23 14:00 NNE 9   Clear   58 17     20%              
Sep 23 13:00 NNW 5   Clear   57 19     22%              
Sep 23 12:00 NNE 10   Clear   55 19     24%              
Sep 23 11:00 NNE 12   Clear   52 17     25%              
Sep 23 10:00 NNE 13   Clear   51 21     31%              
Sep 23 09:00 NNE 13   Clear   47 25     42% 41            
Sep 23 08:00 NW 6   Clear   41 25     53% 37            
Sep 23 07:00 NNW 4   Clear   32 22     66% 28            
Sep 23 06:00 NNW 3   Clear   32 21     64% 29            
Sep 23 05:00 NNW 6   Clear   36 23     59% 31            
Sep 23 04:00 NNW 4   Clear   36 22     57% 33            
Sep 23 03:00 NNW 6   Clear   38 23     55% 33            
Sep 23 02:00 N 7   Clear   40 25     54% 35            
Sep 23 01:00 NNW 6   Clear   41 24     51% 37            
Sep 23 00:00 N 8   Clear   43 25     48% 38            
Sep 22 23:00 N 10   Clear   44 25     47% 39            
Sep 22 22:00 NNW 9   Clear   44 27     51% 39            
Sep 22 21:00 NE 15   Clear   44 28     53% 37            
Sep 22 20:00 NNE 14   Clear   46 31     55% 40            
Sep 22 19:00 NNE 14   Clear   47 25     42% 41            
Sep 22 18:00 NNE 17   Clear   49 26     40% 43            
Sep 22 17:00 NE 14   Clear   52 23     32%              
Sep 22 16:00 NE 12   Clear   54 21     27%              
Sep 22 15:00 NNE 11   Clear   55 21     26%              
Sep 22 14:00 NNE 11   Clear   56 22     26%              
Sep 22 13:00 NNE 6   Clear   56 22     26%              
Sep 22 12:00 SSE 4   Clear   57 22     26%              
Sep 22 11:00 NE 7   Clear   54 24     31%              
Sep 22 10:00 NE 8   Clear   50 26     39% 47            
Sep 22 09:00 NW 4   Clear   46 27     47% 44            
Sep 22 08:00 N 8   Clear   40 24     52% 35            
Sep 22 07:00 N 5   Clear   37 23     56% 33            
Sep 22 06:00 NE 5   Clear   33 23     65% 28            
Sep 22 05:00 NNE 5   Clear   34 22     61% 29            
Notice The following observation data may not be complete
Sep 22 04:00 NNE 4   Clear     19      %              
Sep 22 03:00 NE 4   Clear   34 21     59% 30            
Sep 22 02:00 NE 6   Clear   33 21     62% 27            
Sep 22 01:00 NNE 4   Clear   32 20     62% 28            
Sep 22 00:00 NE 5   Clear   35 23     61% 31            
Sep 21 23:00 NE 6   Clear   35 23     62% 30            
Sep 21 22:00 NE 4   Clear   38 24     56% 35            
Sep 21 21:00 NE 7   Clear   42 26     53% 38            
Sep 21 20:00 NNE 7   Clear   43 28     56% 39            
Sep 21 19:00 NW 7   Clear   44 28     54% 40            
Sep 21 18:00 W 13   Clear   50 23     34% 45            
Sep 21 16:00 WSW 13   Clear   58 21     24%              
Sep 21 15:00 W 16   Clear   60 15     17%              
Sep 21 14:00 WSW 13   Clear   61 16     17%              
Notice The following observation data may not be complete
Sep 21 13:00 W 17   Clear     11      %              
Sep 21 12:00 WSW 20   Clear and Windy   59        %              
Sep 21 11:00 NE 8   Clear   58 28     32%              
Jun 11 14:00 WSW 19   Clear   66 21     18%              
Jun 11 04:00 NW 3   Clear   42 17     36% 41            
Jun 10 18:00 SW 16   Clear   76 18     11%   74          
Jun 09 12:00 SSW 9   Clear   79 33     19%   77          
Jun 08 13:00 S 14   Clear   78 21     12%   76          
Jun 08 08:00 SW 1   Clear   60 37     42%              
Notice The following observation data may not be complete
Jun 08 07:00 ENE 2   Clear     32      %              
Jun 07 21:00 S 4   Clear   70 26     19%              
Jun 07 17:00 S 17   Clear   87 19     8%   83          
Jun 07 15:00 S 16   Clear   89 13     6%   84